Maldives Meteorological Service

SYNOP

Station Code SYNOP
43555
AAXX 27154 43555 42475 63603 10288 20246 30108 40110 82232 333 59003 82818 86078=
43533
AAXX 27154 43533 42475 33204 10282 20249 30108 40110 82202 333 59003 82818=
43577
AAXX 27154 43577 42462 70000 10270 20248 30114 40116 81242 333 58003 81818 87077=
43588
AAXX 27154 43588 42462 71605 10270 20243 30117 40118 83938 333 58008 82818 81919 83362 87276=
43599
AAXX 27154 43599 41457 62503 10254 20246 30113 40115 72582 83962 333 58003 82816 81917 86076 =
Last Updated : 2020-09-27 20:03:34